createdAt,value
2023-04-22T00:02:14.868Z,3.20
2023-04-22T00:04:42.008Z,3.10
2023-04-22T00:07:09.071Z,2.93
2023-04-22T00:09:36.343Z,3.10
2023-04-22T00:12:03.355Z,3.03
2023-04-22T00:14:30.451Z,2.73
2023-04-22T00:16:57.530Z,2.63
2023-04-22T00:19:24.535Z,2.60
2023-04-22T00:21:51.461Z,3.40
2023-04-22T00:24:18.210Z,3.07
2023-04-22T00:26:45.009Z,3.37
2023-04-22T00:29:11.649Z,2.80
2023-04-22T00:31:38.424Z,3.07
2023-04-22T00:34:05.141Z,3.30
2023-04-22T00:36:32.009Z,2.97
2023-04-22T00:38:58.739Z,3.50
2023-04-22T00:41:26.026Z,3.30
2023-04-22T00:43:53.674Z,3.43
2023-04-22T00:46:20.968Z,3.97
2023-04-22T00:48:47.785Z,3.13
2023-04-22T00:51:14.444Z,3.47
2023-04-22T00:53:41.184Z,2.90
2023-04-22T00:56:08.075Z,3.17
2023-04-22T00:58:34.940Z,3.10
2023-04-22T01:01:01.836Z,2.83
2023-04-22T01:03:30.947Z,3.20
2023-04-22T01:05:58.441Z,2.90
2023-04-22T01:08:28.581Z,3.17
2023-04-22T01:10:56.417Z,3.13
2023-04-22T01:13:24.238Z,2.87
2023-04-22T01:15:51.898Z,3.50
2023-04-22T01:18:19.241Z,3.03
2023-04-22T01:20:46.078Z,2.50
2023-04-22T01:23:22.572Z,3.27
2023-04-22T01:25:49.810Z,3.13
2023-04-22T01:28:17.955Z,3.43
2023-04-22T01:30:45.278Z,3.00
2023-04-22T01:33:12.499Z,2.80
2023-04-22T01:35:41.500Z,3.23
2023-04-22T01:38:10.679Z,3.00
2023-04-22T01:40:38.072Z,3.37
2023-04-22T01:43:05.815Z,2.70
2023-04-22T01:45:32.594Z,3.20
2023-04-22T01:47:59.316Z,3.30
2023-04-22T01:50:26.043Z,3.40
2023-04-22T01:52:53.056Z,3.53
2023-04-22T01:55:19.790Z,3.63
2023-04-22T01:57:46.605Z,2.53
2023-04-22T02:00:13.695Z,3.63
2023-04-22T02:02:40.852Z,4.10
2023-04-22T02:05:08.574Z,3.40
2023-04-22T02:07:36.540Z,3.63
2023-04-22T02:10:04.975Z,3.97
2023-04-22T02:12:32.466Z,3.00
2023-04-22T02:14:59.398Z,3.23
2023-04-22T02:17:27.199Z,3.17
2023-04-22T02:19:53.988Z,3.80
2023-04-22T02:22:22.321Z,3.23
2023-04-22T02:24:49.198Z,4.93
2023-04-22T02:27:15.891Z,3.37
2023-04-22T02:29:42.745Z,3.43
2023-04-22T02:32:09.432Z,3.40
2023-04-22T02:34:36.653Z,2.87
2023-04-22T02:37:03.396Z,3.60
2023-04-22T02:39:30.186Z,3.40
2023-04-22T02:41:56.906Z,3.17
2023-04-22T02:44:23.667Z,3.17
2023-04-22T02:46:50.881Z,3.03
2023-04-22T02:49:17.729Z,2.43
2023-04-22T02:51:44.547Z,3.63
2023-04-22T02:54:11.330Z,4.70
2023-04-22T02:56:38.063Z,3.30
2023-04-22T02:59:04.884Z,3.13
2023-04-22T03:01:32.456Z,3.00
2023-04-22T03:03:59.804Z,3.40
2023-04-22T03:06:26.879Z,3.33
2023-04-22T03:08:53.638Z,3.17
2023-04-22T03:11:20.932Z,3.70
2023-04-22T03:13:47.766Z,3.33
2023-04-22T03:16:16.877Z,3.67
2023-04-22T03:18:43.668Z,3.40
2023-04-22T03:21:10.576Z,3.77
2023-04-22T03:23:37.334Z,3.90
2023-04-22T03:26:04.088Z,3.50
2023-04-22T03:28:30.859Z,2.90
2023-04-22T03:30:57.562Z,3.37
2023-04-22T03:33:24.408Z,3.53
2023-04-22T03:35:51.223Z,3.23
2023-04-22T03:38:18.300Z,3.23
2023-04-22T03:40:45.066Z,4.33
2023-04-22T03:43:11.971Z,3.60
2023-04-22T03:45:39.006Z,3.10
2023-04-22T03:48:06.052Z,3.40
2023-04-22T03:50:33.533Z,3.80
2023-04-22T03:53:00.250Z,3.50
2023-04-22T03:55:27.077Z,3.10
2023-04-22T03:57:53.828Z,3.80
2023-04-22T04:00:20.782Z,3.20
2023-04-22T04:02:47.597Z,3.20
2023-04-22T04:05:14.493Z,3.63
2023-04-22T04:07:41.354Z,3.80
2023-04-22T04:10:08.695Z,3.67
2023-04-22T04:12:35.442Z,3.20
2023-04-22T04:15:02.178Z,3.37
2023-04-22T04:17:29.102Z,2.43
2023-04-22T04:19:55.998Z,3.90
2023-04-22T04:22:22.976Z,3.53
2023-04-22T04:24:50.037Z,3.80
2023-04-22T04:27:16.640Z,3.97
2023-04-22T04:29:43.298Z,3.80
2023-04-22T04:32:10.384Z,3.50
2023-04-22T04:34:39.841Z,4.33
2023-04-22T04:37:06.564Z,3.60
2023-04-22T04:39:33.694Z,4.10
2023-04-22T04:42:00.570Z,4.40
2023-04-22T04:44:27.476Z,3.27
2023-04-22T04:46:55.088Z,3.53
2023-04-22T04:49:22.014Z,3.60
2023-04-22T04:51:48.632Z,3.87
2023-04-22T04:54:15.829Z,4.30
2023-04-22T04:56:42.700Z,3.67
2023-04-22T04:59:09.443Z,4.53
2023-04-22T05:01:36.078Z,5.40
2023-04-22T05:04:03.020Z,4.87
2023-04-22T05:06:30.008Z,5.17
2023-04-22T05:08:56.579Z,4.50
2023-04-22T05:11:23.226Z,4.10
2023-04-22T05:13:49.802Z,3.60
2023-04-22T05:16:16.640Z,4.27
2023-04-22T05:18:43.376Z,3.80
2023-04-22T05:21:10.091Z,4.13
2023-04-22T05:23:36.941Z,3.23
2023-04-22T05:26:03.667Z,3.43
2023-04-22T05:28:30.312Z,3.80
2023-04-22T05:30:57.760Z,3.50
2023-04-22T05:33:24.364Z,3.47
2023-04-22T05:35:52.412Z,2.40
2023-04-22T05:38:19.080Z,3.87
2023-04-22T05:40:45.712Z,3.10
2023-04-22T05:43:12.468Z,3.83
2023-04-22T05:45:39.147Z,3.90
2023-04-22T05:48:05.938Z,5.93
2023-04-22T05:50:32.825Z,5.40
2023-04-22T05:52:59.466Z,5.30
2023-04-22T05:55:26.092Z,6.10
2023-04-22T05:57:52.761Z,4.80
2023-04-22T06:00:19.596Z,5.43
2023-04-22T06:02:46.361Z,4.50
2023-04-22T06:05:13.203Z,5.60
2023-04-22T06:07:40.552Z,4.80
2023-04-22T06:10:08.282Z,4.03
2023-04-22T06:12:35.728Z,4.00
2023-04-22T06:15:02.488Z,4.80
2023-04-22T06:17:29.118Z,4.60
2023-04-22T06:19:55.732Z,4.00
2023-04-22T06:22:22.574Z,4.53
2023-04-22T06:24:49.151Z,4.83
2023-04-22T06:27:15.888Z,3.73
2023-04-22T06:29:42.496Z,4.60
2023-04-22T06:32:09.107Z,4.43
2023-04-22T06:34:35.784Z,4.37
2023-04-22T06:37:02.441Z,3.43
2023-04-22T06:39:29.011Z,4.77
2023-04-22T06:41:55.830Z,4.30
2023-04-22T06:44:22.705Z,4.43
2023-04-22T06:46:49.374Z,5.57
2023-04-22T06:49:15.983Z,4.40
2023-04-22T06:51:42.704Z,4.97
2023-04-22T06:54:09.551Z,3.80
2023-04-22T06:56:36.359Z,4.00
2023-04-22T06:59:03.108Z,4.43
2023-04-22T07:01:29.806Z,4.37
2023-04-22T07:03:56.657Z,3.80
2023-04-22T07:06:23.494Z,4.17
2023-04-22T07:08:50.346Z,3.93
2023-04-22T07:11:17.029Z,4.07
2023-04-22T07:13:43.785Z,3.70
2023-04-22T07:16:10.583Z,3.70
2023-04-22T07:18:37.300Z,4.30
2023-04-22T07:21:04.318Z,3.17
2023-04-22T07:23:31.145Z,2.70
2023-04-22T07:25:57.850Z,3.40
2023-04-22T07:28:24.666Z,3.27
2023-04-22T07:30:51.384Z,2.73
2023-04-22T07:33:18.144Z,3.70
2023-04-22T07:35:44.756Z,2.90
2023-04-22T07:38:13.366Z,3.60
2023-04-22T07:40:41.147Z,2.50
2023-04-22T07:43:08.060Z,3.43
2023-04-22T07:45:35.023Z,3.27
2023-04-22T07:48:01.917Z,3.33
2023-04-22T07:50:28.572Z,3.30
2023-04-22T07:52:55.489Z,3.67
2023-04-22T07:55:22.114Z,3.53
2023-04-22T07:57:48.776Z,3.40
2023-04-22T08:00:15.925Z,3.27
2023-04-22T08:02:44.241Z,3.87
2023-04-22T08:05:11.814Z,3.83
2023-04-22T08:07:38.670Z,3.77
2023-04-22T08:10:06.370Z,3.97
2023-04-22T08:12:33.098Z,3.17
2023-04-22T08:14:59.767Z,3.00
2023-04-22T08:17:26.930Z,3.23
2023-04-22T08:19:53.715Z,3.33
2023-04-22T08:22:20.612Z,3.40
2023-04-22T08:24:47.268Z,3.70
2023-04-22T08:27:13.958Z,3.90
2023-04-22T08:29:41.103Z,4.30
2023-04-22T08:32:08.065Z,3.37
2023-04-22T08:34:35.219Z,3.60
2023-04-22T08:37:02.002Z,3.80
2023-04-22T08:39:28.662Z,3.33
2023-04-22T08:41:56.440Z,4.57
2023-04-22T08:44:23.223Z,4.23
2023-04-22T08:46:51.322Z,4.67
2023-04-22T08:49:18.989Z,4.30
2023-04-22T08:51:46.196Z,4.70
2023-04-22T08:54:13.148Z,5.03
2023-04-22T08:56:45.088Z,4.20
2023-04-22T08:59:12.677Z,4.20
2023-04-22T09:01:41.171Z,3.40
2023-04-22T09:04:10.024Z,3.93
2023-04-22T09:06:38.824Z,4.20
2023-04-22T09:09:05.775Z,4.63
2023-04-22T09:11:33.954Z,4.50
2023-04-22T09:14:00.591Z,4.73
2023-04-22T09:16:27.226Z,4.70
2023-04-22T09:18:53.953Z,4.00
2023-04-22T09:21:20.658Z,3.47
2023-04-22T09:23:49.671Z,3.20
2023-04-22T09:26:18.796Z,4.40
2023-04-22T09:28:58.391Z,4.30
2023-04-22T09:31:25.850Z,3.40
2023-04-22T09:33:56.608Z,3.43
2023-04-22T09:36:27.309Z,4.27
2023-04-22T09:38:56.152Z,4.43
2023-04-22T09:41:33.887Z,3.10
2023-04-22T09:44:02.220Z,3.90
2023-04-22T09:46:30.248Z,2.83
2023-04-22T09:48:59.648Z,2.63
2023-04-22T09:51:30.649Z,3.30
2023-04-22T09:54:10.208Z,3.20
2023-04-22T09:56:50.786Z,2.80
2023-04-22T09:59:28.239Z,2.80
2023-04-22T10:02:04.663Z,3.27
2023-04-22T10:04:31.612Z,2.97
2023-04-22T10:06:58.560Z,1.40
2023-04-22T10:09:26.059Z,2.77
2023-04-22T10:11:54.396Z,2.90
2023-04-22T10:14:22.374Z,2.70
2023-04-22T10:16:51.010Z,2.13
2023-04-22T10:19:21.283Z,3.10
2023-04-22T10:21:50.114Z,2.23
2023-04-22T10:24:18.140Z,2.73
2023-04-22T10:26:56.686Z,2.20
2023-04-22T10:29:24.566Z,2.60
2023-04-22T10:32:11.022Z,2.07
2023-04-22T10:34:41.054Z,2.93
2023-04-22T10:37:12.087Z,3.07
2023-04-22T10:39:40.612Z,2.27
2023-04-22T10:42:10.385Z,2.63
2023-04-22T10:44:54.123Z,1.97
2023-04-22T10:47:35.274Z,2.23
2023-04-22T10:50:27.466Z,2.30
2023-04-22T10:53:03.588Z,1.83
2023-04-22T10:55:51.772Z,1.87
2023-04-22T10:58:24.935Z,2.10
2023-04-22T11:01:00.243Z,1.87
2023-04-22T11:03:29.235Z,1.90
2023-04-22T11:06:18.433Z,2.40
2023-04-22T11:09:08.519Z,1.83
2023-04-22T11:11:35.160Z,1.77
2023-04-22T11:14:02.001Z,1.50
2023-04-22T11:16:28.680Z,1.63
2023-04-22T11:18:56.216Z,1.20
2023-04-22T11:21:23.087Z,1.20
2023-04-22T11:23:53.732Z,1.20
2023-04-22T11:26:33.842Z,1.50
2023-04-22T11:29:00.680Z,0.63
2023-04-22T11:31:27.681Z,0.93
2023-04-22T11:33:54.378Z,0.73
2023-04-22T11:36:22.676Z,0.63
2023-04-22T11:38:56.576Z,0.50
2023-04-22T11:41:23.904Z,0.60
2023-04-22T11:43:50.667Z,0.90
2023-04-22T11:46:28.308Z,0.87
2023-04-22T11:48:55.024Z,0.67
2023-04-22T11:51:21.738Z,0.40
2023-04-22T11:53:51.579Z,0.30
2023-04-22T11:56:18.183Z,0.30
2023-04-22T11:58:44.994Z,0.40
2023-04-22T12:01:13.998Z,0.50
2023-04-22T12:03:40.929Z,0.60
2023-04-22T12:06:07.796Z,0.47
2023-04-22T12:08:44.530Z,0.87
2023-04-22T12:11:12.192Z,0.57
2023-04-22T12:13:38.885Z,0.70
2023-04-22T12:16:12.128Z,0.20
2023-04-22T12:18:41.006Z,0.83
2023-04-22T12:21:07.677Z,0.70
2023-04-22T12:23:48.695Z,0.30
2023-04-22T12:26:18.891Z,0.40
2023-04-22T12:28:46.079Z,0.20
2023-04-22T12:31:14.923Z,0.37
2023-04-22T12:33:41.895Z,0.50
2023-04-22T12:36:08.834Z,0.40
2023-04-22T12:38:35.820Z,0.50
2023-04-22T12:41:04.328Z,0.40
2023-04-22T12:43:33.538Z,0.50
2023-04-22T12:46:00.312Z,0.50
2023-04-22T12:48:27.150Z,0.70
2023-04-22T12:50:53.897Z,0.60
2023-04-22T12:53:21.756Z,0.50
2023-04-22T12:55:48.653Z,0.50
2023-04-22T12:58:15.770Z,0.40
2023-04-22T13:00:42.493Z,0.53
2023-04-22T13:03:09.346Z,0.60
2023-04-22T13:05:36.308Z,0.60
2023-04-22T13:08:07.188Z,0.70
2023-04-22T13:10:35.156Z,0.80
2023-04-22T13:15:34.246Z,0.30
2023-04-22T13:18:00.979Z,0.40
2023-04-22T13:20:27.864Z,0.40
2023-04-22T13:22:54.666Z,0.57
2023-04-22T13:25:21.556Z,0.70
2023-04-22T13:27:48.305Z,0.80
2023-04-22T13:30:15.236Z,0.40
2023-04-22T13:32:41.998Z,0.50
2023-04-22T13:35:09.393Z,0.50
2023-04-22T13:37:36.692Z,0.40
2023-04-22T13:40:06.052Z,0.70
2023-04-22T13:42:33.107Z,0.90
2023-04-22T13:44:59.849Z,0.63
2023-04-22T13:47:26.680Z,0.50
2023-04-22T13:49:53.411Z,0.87
2023-04-22T13:52:20.128Z,0.50
2023-04-22T13:54:46.934Z,0.50
2023-04-22T13:57:13.597Z,0.80
2023-04-22T13:59:41.758Z,0.40
2023-04-22T14:02:08.925Z,0.50
2023-04-22T14:04:35.905Z,0.60
2023-04-22T14:07:04.138Z,0.30
2023-04-22T14:09:31.168Z,0.63
2023-04-22T14:11:58.286Z,0.53
2023-04-22T14:14:24.980Z,0.70
2023-04-22T14:16:52.007Z,0.40
2023-04-22T14:19:18.995Z,0.60
2023-04-22T14:21:46.251Z,1.50
2023-04-22T14:24:13.115Z,0.33
2023-04-22T14:26:39.886Z,0.57
2023-04-22T14:29:06.806Z,0.47
2023-04-22T14:31:33.591Z,0.50
2023-04-22T14:34:00.434Z,0.53
2023-04-22T14:36:27.966Z,0.53
2023-04-22T14:38:54.716Z,0.63
2023-04-22T14:41:21.757Z,0.77
2023-04-22T14:43:48.535Z,0.33
2023-04-22T14:46:15.394Z,0.40
2023-04-22T14:48:42.166Z,0.53
2023-04-22T14:51:08.940Z,0.57
2023-04-22T14:53:36.639Z,0.63
2023-04-22T14:56:03.671Z,0.57
2023-04-22T14:58:33.454Z,0.80
2023-04-22T15:01:00.390Z,0.77
2023-04-22T15:03:27.700Z,0.43
2023-04-22T15:05:55.680Z,0.70
2023-04-22T15:08:25.227Z,0.50
2023-04-22T15:10:51.997Z,0.57
2023-04-22T15:13:19.687Z,0.30
2023-04-22T15:15:46.878Z,0.60
2023-04-22T15:18:13.784Z,0.40
2023-04-22T15:20:41.436Z,0.50
2023-04-22T15:23:08.198Z,0.50
2023-04-22T15:25:35.857Z,0.60
2023-04-22T15:28:03.098Z,0.70
2023-04-22T15:30:29.925Z,0.87
2023-04-22T15:32:56.713Z,0.50
2023-04-22T15:35:24.138Z,0.40
2023-04-22T15:37:51.038Z,0.80
2023-04-22T15:40:17.738Z,0.80
2023-04-22T15:42:44.561Z,0.40
2023-04-22T15:45:11.603Z,0.50
2023-04-22T15:47:41.397Z,0.40
2023-04-22T15:50:09.720Z,0.57
2023-04-22T15:52:38.169Z,0.33
2023-04-22T15:55:08.057Z,0.50
2023-04-22T15:57:35.510Z,2.80
2023-04-22T16:00:11.725Z,16.20
2023-04-22T16:02:40.404Z,8.73
2023-04-22T16:05:07.581Z,5.80
2023-04-22T16:07:34.385Z,2.10
2023-04-22T16:10:01.410Z,1.23
2023-04-22T16:12:28.109Z,1.17
2023-04-22T16:14:54.698Z,0.90
2023-04-22T16:17:21.602Z,0.93
2023-04-22T16:19:48.425Z,0.60
2023-04-22T16:22:15.293Z,0.70
2023-04-22T16:24:44.204Z,0.80
2023-04-22T16:27:16.594Z,0.40
2023-04-22T16:29:43.983Z,0.50
2023-04-22T16:32:11.275Z,0.60
2023-04-22T16:34:38.466Z,0.60
2023-04-22T16:37:06.228Z,0.70
2023-04-22T16:39:33.308Z,0.40
2023-04-22T16:42:00.220Z,0.50
2023-04-22T16:44:26.976Z,0.70
2023-04-22T16:46:53.550Z,0.87
2023-04-22T16:49:20.408Z,1.30
2023-04-22T16:51:47.199Z,1.00
2023-04-22T16:54:13.943Z,0.40
2023-04-22T16:56:40.647Z,0.73
2023-04-22T16:59:07.265Z,0.70
2023-04-22T17:01:34.211Z,1.23
2023-04-22T17:04:01.587Z,0.90
2023-04-22T17:06:28.585Z,0.90
2023-04-22T17:08:55.339Z,0.67
2023-04-22T17:11:23.990Z,0.70
2023-04-22T17:13:51.438Z,0.80
2023-04-22T17:16:18.789Z,1.33
2023-04-22T17:18:47.097Z,0.40
2023-04-22T17:21:14.210Z,0.60
2023-04-22T17:23:41.003Z,0.60
2023-04-22T17:26:08.011Z,0.67
2023-04-22T17:28:34.726Z,1.00
2023-04-22T17:31:01.396Z,1.47
2023-04-22T17:33:29.181Z,0.70
2023-04-22T17:35:56.186Z,0.90
2023-04-22T17:38:22.770Z,0.90
2023-04-22T17:40:49.420Z,1.27
2023-04-22T17:43:16.026Z,1.87
2023-04-22T17:45:42.608Z,2.30
2023-04-22T17:48:09.257Z,1.30
2023-04-22T17:50:36.272Z,1.37
2023-04-22T17:53:03.019Z,1.13
2023-04-22T17:55:35.297Z,1.30
2023-04-22T17:58:03.131Z,1.00
2023-04-22T18:00:30.792Z,1.70
2023-04-22T18:02:57.867Z,2.67
2023-04-22T18:05:24.653Z,2.07
2023-04-22T18:07:51.386Z,1.70
2023-04-22T18:10:18.104Z,2.00
2023-04-22T18:12:44.817Z,1.80
2023-04-22T18:15:11.417Z,5.17
2023-04-22T18:17:38.082Z,8.30
2023-04-22T18:20:17.578Z,1.20
2023-04-22T18:22:46.772Z,1.30
2023-04-22T18:25:13.454Z,0.83
2023-04-22T18:27:40.210Z,2.10
2023-04-22T18:30:07.353Z,1.63
2023-04-22T18:32:34.124Z,1.30
2023-04-22T18:35:00.905Z,1.30
2023-04-22T18:37:30.883Z,1.70
2023-04-22T18:39:57.712Z,1.90
2023-04-22T18:42:24.599Z,1.07
2023-04-22T18:44:51.308Z,1.30
2023-04-22T18:47:18.040Z,0.97
2023-04-22T18:49:45.584Z,1.50
2023-04-22T18:52:12.323Z,1.30
2023-04-22T18:54:39.450Z,1.43
2023-04-22T18:57:06.642Z,1.50
2023-04-22T18:59:33.305Z,1.20
2023-04-22T19:02:00.358Z,1.20
2023-04-22T19:04:27.564Z,1.60
2023-04-22T19:06:56.964Z,1.97
2023-04-22T19:09:24.068Z,1.30
2023-04-22T19:11:50.691Z,1.70
2023-04-22T19:14:17.621Z,2.47
2023-04-22T19:16:44.296Z,3.20
2023-04-22T19:19:12.200Z,2.90
2023-04-22T19:21:39.462Z,2.43
2023-04-22T19:24:06.812Z,1.87
2023-04-22T19:26:33.824Z,1.40
2023-04-22T19:29:00.494Z,1.53
2023-04-22T19:31:30.456Z,1.87
2023-04-22T19:33:57.298Z,1.47
2023-04-22T19:36:24.149Z,1.47
2023-04-22T19:38:50.776Z,1.23
2023-04-22T19:41:17.484Z,2.00
2023-04-22T19:43:44.117Z,1.70
2023-04-22T19:46:10.928Z,1.60
2023-04-22T19:48:37.919Z,2.07
2023-04-22T19:51:06.211Z,1.57
2023-04-22T19:53:33.446Z,1.33
2023-04-22T19:56:00.519Z,1.87
2023-04-22T19:58:28.405Z,1.87
2023-04-22T20:00:55.454Z,1.90
2023-04-22T20:03:22.906Z,2.37
2023-04-22T20:05:50.577Z,1.57
2023-04-22T20:08:19.731Z,2.23
2023-04-22T20:10:49.532Z,2.70
2023-04-22T20:13:17.341Z,2.00
2023-04-22T20:15:44.519Z,2.10
2023-04-22T20:18:12.100Z,2.20
2023-04-22T20:20:40.512Z,1.47
2023-04-22T20:23:10.525Z,2.40
2023-04-22T20:25:44.133Z,2.40
2023-04-22T20:28:11.003Z,1.90
2023-04-22T20:30:37.851Z,2.47
2023-04-22T20:33:04.681Z,4.07
2023-04-22T20:35:32.138Z,2.00
2023-04-22T20:38:00.227Z,2.63
2023-04-22T20:40:27.322Z,2.53
2023-04-22T20:42:57.320Z,3.07
2023-04-22T20:45:24.852Z,2.53
2023-04-22T20:47:52.113Z,2.10
2023-04-22T20:50:20.707Z,2.80
2023-04-22T20:52:48.552Z,2.30
2023-04-22T20:55:15.216Z,2.53
2023-04-22T20:57:41.839Z,2.27
2023-04-22T21:00:10.236Z,2.50
2023-04-22T21:02:37.976Z,4.10
2023-04-22T21:05:05.422Z,2.80
2023-04-22T21:07:32.879Z,3.17
2023-04-22T21:09:59.604Z,2.50
2023-04-22T21:12:27.349Z,2.53
2023-04-22T21:14:54.428Z,2.53
2023-04-22T21:17:25.212Z,2.80
2023-04-22T21:19:53.438Z,2.30
2023-04-22T21:22:24.263Z,3.83
2023-04-22T21:24:52.884Z,2.40
2023-04-22T21:27:20.632Z,2.80
2023-04-22T21:29:48.578Z,2.60
2023-04-22T21:32:16.079Z,2.17
2023-04-22T21:34:43.284Z,2.90
2023-04-22T21:37:10.486Z,2.50
2023-04-22T21:39:37.237Z,2.07
2023-04-22T21:42:07.923Z,2.90
2023-04-22T21:44:37.220Z,2.83
2023-04-22T21:47:04.461Z,2.93
2023-04-22T21:49:31.252Z,2.27
2023-04-22T21:51:58.399Z,2.93
2023-04-22T21:54:25.266Z,2.47
2023-04-22T21:56:51.982Z,3.27
2023-04-22T21:59:18.610Z,2.90
2023-04-22T22:01:45.820Z,3.53
2023-04-22T22:04:15.448Z,2.80
2023-04-22T22:06:42.912Z,2.47
2023-04-22T22:09:09.634Z,2.93
2023-04-22T22:11:36.311Z,2.33
2023-04-22T22:14:03.036Z,3.20
2023-04-22T22:16:31.018Z,2.73
2023-04-22T22:18:58.445Z,2.93
2023-04-22T22:21:25.386Z,2.73
2023-04-22T22:23:52.054Z,2.87
2023-04-22T22:26:19.014Z,2.40
2023-04-22T22:28:45.619Z,3.17
2023-04-22T22:31:12.242Z,2.47
2023-04-22T22:33:38.857Z,2.97
2023-04-22T22:36:05.570Z,2.93
2023-04-22T22:38:32.358Z,2.60
2023-04-22T22:40:58.970Z,2.50
2023-04-22T22:43:25.713Z,2.80
2023-04-22T22:45:52.668Z,2.60
2023-04-22T22:48:19.593Z,3.90
2023-04-22T22:50:49.074Z,3.20
2023-04-22T22:53:15.703Z,2.47
2023-04-22T22:55:42.519Z,2.13
2023-04-22T22:58:09.121Z,2.63
2023-04-22T23:00:36.714Z,3.40
2023-04-22T23:03:04.091Z,2.87
2023-04-22T23:05:31.214Z,2.80
2023-04-22T23:07:57.853Z,2.93
2023-04-22T23:10:24.671Z,3.80
2023-04-22T23:12:51.487Z,2.90
2023-04-22T23:15:18.222Z,2.97
2023-04-22T23:17:45.144Z,2.73
2023-04-22T23:20:12.274Z,2.67
2023-04-22T23:22:40.708Z,2.70
2023-04-22T23:25:08.721Z,2.70
2023-04-22T23:27:36.129Z,2.60
2023-04-22T23:30:04.401Z,2.43
2023-04-22T23:32:32.537Z,2.27
2023-04-22T23:35:00.738Z,3.00
2023-04-22T23:37:29.473Z,3.67
2023-04-22T23:39:56.361Z,3.27
2023-04-22T23:42:23.041Z,3.30
2023-04-22T23:44:49.911Z,2.23
2023-04-22T23:47:16.635Z,2.50
2023-04-22T23:49:43.571Z,3.17
2023-04-22T23:52:11.098Z,3.10
2023-04-22T23:54:38.214Z,3.03
2023-04-22T23:57:05.236Z,3.10
2023-04-22T23:59:32.447Z,3.40
